Alianca Sky — A8UK6 — position and weather

sailwx.info

Track history (hours):
 
Tides and Currents Weather Stations Pressure Air Temp Water Temp Dewpoint Dewpoint Depression Visibility Wind Speed Wind Dir Waves Ship Positions

Alianca Sky

Last reported at 2014-Nov-23 19:24 UTC. Time now 2014-Nov-25 00:44 UTC.
Position N 39°10' W 075°16'.

Length 186 m; draft 9.1 m.

Type: Ship (hazmat cat D). MMSI: 636014513.

Date/timePositionNaut miles runAvg speedWind from/ knotsBaromVisibWave heightAir tempDewpointWater temp
2014-Nov-23 19:24N 39°10' W 075°16'1112.2
2014-Nov-23 18:32N 39°19' W 075°24'1111.0
2014-Nov-23 17:33N 39°27' W 075°33'8 8.3
2014-Nov-23 16:33N 39°35' W 075°34'8 7.7
2014-Nov-23 15:33N 39°42' W 075°31'7 7.1
2014-Nov-23 14:32N 39°48' W 075°25'0 0.3
2014-Nov-23 13:33N 39°48' W 075°25'0 0.1
2014-Nov-23 12:18N 39°48' W 075°25'0 0.0
2014-Nov-23 11:30N 39°48' W 075°25'0 0.0
2014-Nov-23 10:33N 39°48' W 075°25'0 0.0
2014-Nov-23 09:33N 39°48' W 075°25'0 0.0
2014-Nov-23 08:33N 39°48' W 075°25'0 0.2
2014-Nov-23 07:33N 39°48' W 075°24'0 0.0
2014-Nov-23 02:27N 39°48' W 075°24'0 0.2
2014-Nov-23 01:33N 39°48' W 075°25'2 1.7
2014-Nov-23 00:33N 39°49' W 075°23'9 9.0
2014-Nov-22 23:32N 39°53' W 075°12'  
2014-Nov-20 02:24N 39°53' W 075°11'9 9.6
2014-Nov-20 01:29N 39°50' W 075°22'1010.3
2014-Nov-20 00:33N 39°43' W 075°30'1010.3
2014-Nov-19 23:33N 39°33' W 075°33'1010.3
2014-Nov-19 22:33N 39°23' W 075°28'  
Track history (hours):
 
Tides and Currents Weather Stations Pressure Air Temp Water Temp Dewpoint Dewpoint Depression Visibility Wind Speed Wind Dir Waves Ship Positions

Alianca Sky

Last reported at 2014-Nov-23 19:24 UTC. Time now 2014-Nov-25 00:44 UTC.
Position N 39°10' W 075°16'.

Length 186 m; draft 9.1 m.

Type: Ship (hazmat cat D). MMSI: 636014513.

Date/timePositionNaut miles runAvg speedWind from/ knotsBaromVisibWave heightAir tempDewpointWater temp
2014-Nov-23 19:24N 39°10' W 075°16'1112.2
2014-Nov-23 18:32N 39°19' W 075°24'1111.0
2014-Nov-23 17:33N 39°27' W 075°33'8 8.3
2014-Nov-23 16:33N 39°35' W 075°34'8 7.7
2014-Nov-23 15:33N 39°42' W 075°31'7 7.1
2014-Nov-23 14:32N 39°48' W 075°25'0 0.3
2014-Nov-23 13:33N 39°48' W 075°25'0 0.1
2014-Nov-23 12:18N 39°48' W 075°25'0 0.0
2014-Nov-23 11:30N 39°48' W 075°25'0 0.0
2014-Nov-23 10:33N 39°48' W 075°25'0 0.0
2014-Nov-23 09:33N 39°48' W 075°25'0 0.0
2014-Nov-23 08:33N 39°48' W 075°25'0 0.2
2014-Nov-23 07:33N 39°48' W 075°24'0 0.0
2014-Nov-23 02:27N 39°48' W 075°24'0 0.2
2014-Nov-23 01:33N 39°48' W 075°25'2 1.7
2014-Nov-23 00:33N 39°49' W 075°23'9 9.0
2014-Nov-22 23:32N 39°53' W 075°12'  
2014-Nov-20 02:24N 39°53' W 075°11'9 9.6
2014-Nov-20 01:29N 39°50' W 075°22'1010.3
2014-Nov-20 00:33N 39°43' W 075°30'1010.3
2014-Nov-19 23:33N 39°33' W 075°33'1010.3
2014-Nov-19 22:33N 39°23' W 075°28'  

Dump ship's entire track history